createdAt,value
2018-11-23T00:03:42.809Z,16.51
2018-11-23T00:09:37.824Z,17.74
2018-11-23T00:15:32.833Z,19.38
2018-11-23T00:21:27.815Z,16.74
2018-11-23T00:27:22.860Z,15
2018-11-23T00:33:17.826Z,17.12
2018-11-23T00:39:12.843Z,16.49
2018-11-23T00:45:07.846Z,15.07
2018-11-23T00:51:02.836Z,16.17
2018-11-23T00:56:57.864Z,14.9
2018-11-23T01:02:52.904Z,15.79
2018-11-23T01:08:47.854Z,15.74
2018-11-23T01:14:42.861Z,15.32
2018-11-23T01:20:37.855Z,15.75
2018-11-23T01:26:32.860Z,14.64
2018-11-23T01:32:27.854Z,13.62
2018-11-23T01:38:22.849Z,14.7
2018-11-23T01:44:17.954Z,13.26
2018-11-23T01:50:12.888Z,13.6
2018-11-23T01:56:07.888Z,13.02
2018-11-23T02:02:02.879Z,13.4
2018-11-23T02:07:57.910Z,11.59
2018-11-23T02:13:52.887Z,12.11
2018-11-23T02:19:47.915Z,13.52
2018-11-23T02:25:42.923Z,15.86
2018-11-23T02:31:37.902Z,13.98
2018-11-23T02:37:32.908Z,14.21
2018-11-23T02:43:27.922Z,16.17
2018-11-23T02:49:22.933Z,17.09
2018-11-23T02:55:17.902Z,17.78
2018-11-23T03:01:12.914Z,19.39
2018-11-23T03:07:07.899Z,20.78
2018-11-23T03:13:02.923Z,18.14
2018-11-23T03:18:57.910Z,19.77
2018-11-23T03:24:52.915Z,19.73
2018-11-23T03:30:47.924Z,20.26
2018-11-23T03:36:42.947Z,20.42
2018-11-23T03:42:37.937Z,20.03
2018-11-23T03:48:32.973Z,20.29
2018-11-23T03:54:27.942Z,17.93
2018-11-23T04:00:22.972Z,18.7
2018-11-23T04:06:17.936Z,18.74
2018-11-23T04:12:12.969Z,19.6
2018-11-23T04:18:08.014Z,20.28
2018-11-23T04:24:02.970Z,18.54
2018-11-23T04:29:57.966Z,18.1
2018-11-23T04:35:52.974Z,18.3
2018-11-23T04:41:47.988Z,16.63
2018-11-23T04:47:42.997Z,18.44
2018-11-23T04:53:37.964Z,16.52
2018-11-23T04:59:32.990Z,16.72
2018-11-23T05:05:27.983Z,17.27
2018-11-23T05:11:23.007Z,17.24
2018-11-23T05:17:17.979Z,17.97
2018-11-23T05:23:12.996Z,18.19
2018-11-23T05:29:07.994Z,18.8
2018-11-23T05:35:03.010Z,20.68
2018-11-23T05:40:58.024Z,19.24
2018-11-23T05:46:53.062Z,20.31
2018-11-23T05:52:48.052Z,17.51
2018-11-23T05:58:43.025Z,19.2
2018-11-23T06:04:38.007Z,20.51
2018-11-23T06:10:33.028Z,19.14
2018-11-23T06:16:28.035Z,20.86
2018-11-23T06:22:23.066Z,21.23
2018-11-23T06:28:18.028Z,21.83
2018-11-23T06:34:13.092Z,18.98
2018-11-23T06:40:08.037Z,19
2018-11-23T06:46:03.036Z,19.35
2018-11-23T06:51:58.045Z,21.23
2018-11-23T06:57:53.090Z,25.13
2018-11-23T07:03:48.069Z,25.94
2018-11-23T07:09:43.064Z,28.08
2018-11-23T07:15:38.034Z,29.04
2018-11-23T07:21:33.102Z,28.01
2018-11-23T07:27:28.060Z,27.19
2018-11-23T07:33:23.082Z,23.97
2018-11-23T07:39:18.088Z,25.94
2018-11-23T07:45:13.080Z,25.68
2018-11-23T07:51:08.073Z,25.5
2018-11-23T07:57:03.145Z,27.77
2018-11-23T08:02:58.111Z,29.22
2018-11-23T08:08:53.069Z,30.08
2018-11-23T08:14:48.087Z,29.72
2018-11-23T08:20:43.085Z,28.92
2018-11-23T08:26:38.115Z,28.53
2018-11-23T08:32:33.089Z,31.06
2018-11-23T08:38:28.100Z,32.32
2018-11-23T08:44:23.112Z,32.48
2018-11-23T08:50:18.113Z,32.75
2018-11-23T08:56:13.112Z,32.09
2018-11-23T09:02:08.239Z,32.8
2018-11-23T09:08:03.181Z,45.25
2018-11-23T09:13:58.112Z,36.46
2018-11-23T09:19:53.138Z,34.59
2018-11-23T09:25:48.121Z,35.92
2018-11-23T09:31:43.148Z,36.82
2018-11-23T09:37:38.198Z,35.07
2018-11-23T09:43:33.167Z,29.75
2018-11-23T09:49:28.148Z,28.45
2018-11-23T09:55:24.031Z,28.56
2018-11-23T10:01:18.182Z,28.98
2018-11-23T10:07:13.169Z,28.89
2018-11-23T10:13:08.145Z,48.25
2018-11-23T10:19:03.201Z,38.87
2018-11-23T10:24:58.197Z,32.42
2018-11-23T10:30:53.227Z,32.8
2018-11-23T10:36:48.176Z,40.08
2018-11-23T10:42:43.165Z,33.83
2018-11-23T10:48:38.192Z,55.89
2018-11-23T10:54:33.189Z,32.85
2018-11-23T11:00:28.195Z,32.33
2018-11-23T11:06:23.205Z,48.75
2018-11-23T11:12:18.307Z,42.8
2018-11-23T11:18:13.236Z,35.87
2018-11-23T11:24:08.243Z,31.5
2018-11-23T11:30:03.263Z,38.91
2018-11-23T11:35:58.204Z,45.48
2018-11-23T11:41:53.243Z,37.87
2018-11-23T11:47:48.212Z,38.74
2018-11-23T11:53:43.228Z,37.54
2018-11-23T11:59:38.245Z,37.86
2018-11-23T12:05:33.258Z,46.23
2018-11-23T12:11:28.297Z,41.79
2018-11-23T12:17:23.244Z,60.03
2018-11-23T12:23:18.230Z,33.72
2018-11-23T12:29:13.240Z,31.37
2018-11-23T12:35:08.254Z,46.24
2018-11-23T12:41:03.257Z,31.01
2018-11-23T12:46:58.246Z,31.1
2018-11-23T12:52:53.248Z,31.14
2018-11-23T12:58:48.289Z,29.4
2018-11-23T13:04:43.278Z,34.28
2018-11-23T13:10:38.272Z,37.17
2018-11-23T13:16:33.279Z,40.68
2018-11-23T13:22:28.292Z,35.84
2018-11-23T13:28:23.285Z,35.29
2018-11-23T13:34:18.274Z,31.79
2018-11-23T13:47:12.465Z,47.04
2018-11-23T13:53:07.463Z,37.92
2018-11-23T13:59:02.484Z,34.09
2018-11-23T14:04:57.558Z,17.19
2018-11-23T14:10:52.530Z,20.92
2018-11-23T14:16:47.484Z,28.28
2018-11-23T14:22:42.495Z,42.64
2018-11-23T14:28:37.530Z,56.26
2018-11-23T14:34:32.497Z,45.25
2018-11-23T14:40:27.526Z,52.7
2018-11-23T14:46:22.497Z,45.35
2018-11-23T14:52:17.528Z,58.13
2018-11-23T14:58:12.523Z,59.02
2018-11-23T15:04:07.514Z,41.99
2018-11-23T15:10:02.519Z,42.68
2018-11-23T15:15:57.523Z,47.93
2018-11-23T15:21:52.543Z,50.76
2018-11-23T15:27:47.620Z,57.89
2018-11-23T15:33:42.527Z,41.42
2018-11-23T15:39:37.553Z,53.87
2018-11-23T15:45:32.538Z,36.19
2018-11-23T15:51:27.610Z,15.44
2018-11-23T15:57:22.535Z,8.67
2018-11-23T16:03:17.578Z,9.41
2018-11-23T16:09:12.557Z,8
2018-11-23T16:15:07.563Z,6.36
2018-11-23T16:21:02.558Z,10.08
2018-11-23T16:26:57.584Z,14.35
2018-11-23T16:32:52.591Z,15.03
2018-11-23T16:38:47.580Z,14.92
2018-11-23T16:44:42.615Z,41.79
2018-11-23T16:50:37.643Z,22.58
2018-11-23T16:56:32.611Z,14.61
2018-11-23T17:02:27.611Z,14.08
2018-11-23T17:08:22.602Z,12.82
2018-11-23T17:14:17.593Z,9.65
2018-11-23T17:20:12.611Z,16.03
2018-11-23T17:26:07.595Z,17.01
2018-11-23T17:32:02.624Z,37.46
2018-11-23T17:37:57.614Z,18.5
2018-11-23T17:43:52.610Z,20.62
2018-11-23T17:49:47.605Z,48.15
2018-11-23T17:55:42.622Z,66.17
2018-11-23T18:01:37.622Z,16.95
2018-11-23T18:07:32.632Z,25.14
2018-11-23T18:13:27.625Z,16.26
2018-11-23T18:19:22.649Z,15.34
2018-11-23T18:25:17.639Z,21.27
2018-11-23T18:31:12.680Z,27.23
2018-11-23T18:37:07.627Z,22.54
2018-11-23T18:43:02.654Z,27.86
2018-11-23T18:48:57.662Z,25.43
2018-11-23T18:54:52.647Z,19.8
2018-11-23T19:00:47.643Z,16.21
2018-11-23T19:06:42.677Z,15.02
2018-11-23T19:12:37.656Z,15.15
2018-11-23T19:18:32.665Z,14.28
2018-11-23T19:24:27.693Z,13.27
2018-11-23T19:30:28.013Z,13.55
2018-11-23T19:36:17.694Z,13.13
2018-11-23T19:42:12.673Z,16.71
2018-11-23T19:48:07.735Z,11.75
2018-11-23T19:54:02.747Z,17.58
2018-11-23T19:59:57.732Z,16.4
2018-11-23T20:05:52.705Z,15.57
2018-11-23T20:11:47.714Z,14.6
2018-11-23T20:17:42.704Z,15.31
2018-11-23T20:23:37.708Z,20.26
2018-11-23T20:29:32.728Z,28
2018-11-23T20:35:27.722Z,24.43
2018-11-23T20:41:22.734Z,22.2
2018-11-23T20:47:17.729Z,17.56
2018-11-23T20:53:12.728Z,18.47
2018-11-23T20:59:07.756Z,16.42
2018-11-23T21:05:02.747Z,13.84
2018-11-23T21:10:57.749Z,16.1
2018-11-23T21:16:52.769Z,16.18
2018-11-23T21:22:47.767Z,15.35
2018-11-23T21:28:42.740Z,14.67
2018-11-23T21:34:37.745Z,14.17
2018-11-23T21:40:32.748Z,16.16
2018-11-23T21:46:27.770Z,14.15
2018-11-23T21:52:22.789Z,12.92
2018-11-23T21:58:17.837Z,14.34
2018-11-23T22:04:12.788Z,15.01
2018-11-23T22:10:07.785Z,14.86
2018-11-23T22:16:02.764Z,13.03
2018-11-23T22:21:57.810Z,14.59
2018-11-23T22:27:52.787Z,13.9
2018-11-23T22:33:47.820Z,12.48
2018-11-23T22:39:42.764Z,13.17
2018-11-23T22:45:37.823Z,12.24
2018-11-23T22:51:32.807Z,13.67
2018-11-23T22:57:27.801Z,15
2018-11-23T23:03:22.886Z,12.14
2018-11-23T23:09:17.829Z,12.08
2018-11-23T23:15:12.835Z,13.11
2018-11-23T23:21:07.798Z,12.35
2018-11-23T23:27:02.822Z,11.98
2018-11-23T23:32:57.836Z,12.12
2018-11-23T23:38:52.856Z,12.2
2018-11-23T23:44:47.844Z,12.27
2018-11-23T23:50:42.869Z,15.82
2018-11-23T23:56:37.842Z,12.45
